createdAt,value
2023-05-24T00:00:05.131Z,2.50
2023-05-24T00:02:51.528Z,3.23
2023-05-24T00:05:38.038Z,2.93
2023-05-24T00:08:26.279Z,2.80
2023-05-24T00:11:12.698Z,2.50
2023-05-24T00:13:59.060Z,2.93
2023-05-24T00:16:46.488Z,2.97
2023-05-24T00:19:33.268Z,3.20
2023-05-24T00:22:21.041Z,3.27
2023-05-24T00:25:10.130Z,3.20
2023-05-24T00:27:56.778Z,3.53
2023-05-24T00:30:43.381Z,3.10
2023-05-24T00:33:30.101Z,3.20
2023-05-24T00:36:16.640Z,2.63
2023-05-24T00:39:03.148Z,3.30
2023-05-24T00:41:51.007Z,3.10
2023-05-24T00:44:37.825Z,3.47
2023-05-24T00:47:24.582Z,3.53
2023-05-24T00:50:13.266Z,3.67
2023-05-24T00:53:03.328Z,3.13
2023-05-24T00:55:50.527Z,3.23
2023-05-24T00:58:38.686Z,3.17
2023-05-24T01:01:26.733Z,3.40
2023-05-24T01:04:13.289Z,3.27
2023-05-24T01:07:14.561Z,3.00
2023-05-24T01:10:09.558Z,2.93
2023-05-24T01:13:05.776Z,3.20
2023-05-24T01:16:00.779Z,3.60
2023-05-24T01:18:53.659Z,3.33
2023-05-24T01:21:56.322Z,3.20
2023-05-24T01:24:54.683Z,3.30
2023-05-24T01:27:44.164Z,3.87
2023-05-24T01:30:31.190Z,3.80
2023-05-24T01:33:17.999Z,3.87
2023-05-24T01:36:04.658Z,2.80
2023-05-24T01:38:52.114Z,3.07
2023-05-24T01:41:48.536Z,3.03
2023-05-24T01:44:41.104Z,3.93
2023-05-24T01:47:38.645Z,3.07
2023-05-24T01:50:29.040Z,3.23
2023-05-24T01:53:19.995Z,3.40
2023-05-24T01:56:08.330Z,3.10
2023-05-24T01:58:57.596Z,3.10
2023-05-24T02:01:46.752Z,3.10
2023-05-24T02:04:33.450Z,3.20
2023-05-24T02:07:20.367Z,3.70
2023-05-24T02:10:08.115Z,3.40
2023-05-24T02:12:54.814Z,4.33
2023-05-24T02:15:42.019Z,3.83
2023-05-24T02:18:34.673Z,4.07
2023-05-24T02:21:21.151Z,3.97
2023-05-24T02:24:08.017Z,3.63
2023-05-24T02:26:56.033Z,3.70
2023-05-24T02:29:42.904Z,3.23
2023-05-24T02:32:29.700Z,4.17
2023-05-24T02:35:17.699Z,3.70
2023-05-24T02:38:06.718Z,3.73
2023-05-24T02:40:53.184Z,3.33
2023-05-24T02:43:39.553Z,3.50
2023-05-24T02:46:25.988Z,3.60
2023-05-24T02:49:12.733Z,3.37
2023-05-24T02:52:00.892Z,3.43
2023-05-24T02:54:47.364Z,3.70
2023-05-24T02:57:34.251Z,4.37
2023-05-24T03:00:21.502Z,3.70
2023-05-24T03:03:08.666Z,4.10
2023-05-24T03:05:55.449Z,3.87
2023-05-24T03:08:43.680Z,3.13
2023-05-24T03:11:30.155Z,3.30
2023-05-24T03:14:17.515Z,4.00
2023-05-24T03:17:04.125Z,4.17
2023-05-24T03:19:51.056Z,3.40
2023-05-24T03:22:37.837Z,4.20
2023-05-24T03:25:27.383Z,3.23
2023-05-24T03:28:15.225Z,4.87
2023-05-24T03:31:02.208Z,4.67
2023-05-24T03:33:49.303Z,4.17
2023-05-24T03:36:36.676Z,3.20
2023-05-24T03:39:23.149Z,3.70
2023-05-24T03:42:11.120Z,4.00
2023-05-24T03:44:57.750Z,4.07
2023-05-24T03:47:44.709Z,4.20
2023-05-24T03:50:31.531Z,4.07
2023-05-24T03:53:17.824Z,4.90
2023-05-24T03:56:04.305Z,4.30
2023-05-24T03:58:52.589Z,3.40
2023-05-24T04:01:40.212Z,3.87
2023-05-24T04:04:26.846Z,3.50
2023-05-24T04:07:13.856Z,3.63
2023-05-24T04:10:00.437Z,3.63
2023-05-24T04:12:46.937Z,4.23
2023-05-24T04:15:35.209Z,3.93
2023-05-24T04:18:22.403Z,3.77
2023-05-24T04:21:08.804Z,4.57
2023-05-24T04:23:55.973Z,3.60
2023-05-24T04:26:42.782Z,4.40
2023-05-24T04:29:29.125Z,3.77
2023-05-24T04:32:17.986Z,3.83
2023-05-24T04:35:05.646Z,3.93
2023-05-24T04:37:52.141Z,4.23
2023-05-24T04:40:38.507Z,4.07
2023-05-24T04:43:26.366Z,4.17
2023-05-24T04:46:12.786Z,3.67
2023-05-24T04:49:02.121Z,4.17
2023-05-24T04:51:48.494Z,3.67
2023-05-24T04:54:35.334Z,3.80
2023-05-24T04:57:21.598Z,3.73
2023-05-24T05:00:10.282Z,4.37
2023-05-24T05:02:56.796Z,4.10
2023-05-24T05:05:46.552Z,3.87
2023-05-24T05:08:33.489Z,4.07
2023-05-24T05:11:20.652Z,4.10
2023-05-24T05:14:09.614Z,4.53
2023-05-24T05:16:57.000Z,4.50
2023-05-24T05:19:43.650Z,4.10
2023-05-24T05:22:31.470Z,4.57
2023-05-24T05:25:18.290Z,4.33
2023-05-24T05:28:04.679Z,3.80
2023-05-24T05:30:51.254Z,4.07
2023-05-24T05:33:37.766Z,4.07
2023-05-24T05:36:24.627Z,4.33
2023-05-24T05:39:12.483Z,3.87
2023-05-24T05:41:59.022Z,4.00
2023-05-24T05:44:46.346Z,3.23
2023-05-24T05:47:32.794Z,4.00
2023-05-24T05:50:19.677Z,3.73
2023-05-24T05:53:06.253Z,3.63
2023-05-24T05:55:54.454Z,4.10
2023-05-24T05:58:41.303Z,3.83
2023-05-24T06:01:27.706Z,4.17
2023-05-24T06:04:14.142Z,4.30
2023-05-24T06:07:01.131Z,3.93
2023-05-24T06:09:48.083Z,4.30
2023-05-24T06:12:35.851Z,4.07
2023-05-24T06:15:23.110Z,3.87
2023-05-24T06:18:09.946Z,4.37
2023-05-24T06:20:56.455Z,4.30
2023-05-24T06:23:43.002Z,4.17
2023-05-24T06:26:29.883Z,3.80
2023-05-24T06:29:20.220Z,5.77
2023-05-24T06:32:07.316Z,4.27
2023-05-24T06:34:53.956Z,4.40
2023-05-24T06:37:40.873Z,4.03
2023-05-24T06:40:27.691Z,3.73
2023-05-24T06:43:15.084Z,4.60
2023-05-24T06:46:03.803Z,4.47
2023-05-24T06:48:50.644Z,4.03
2023-05-24T06:51:38.113Z,4.30
2023-05-24T06:54:25.664Z,4.20
2023-05-24T06:57:12.726Z,4.13
2023-05-24T06:59:59.040Z,3.93
2023-05-24T07:02:46.785Z,3.97
2023-05-24T07:05:33.727Z,3.20
2023-05-24T07:08:20.022Z,4.03
2023-05-24T07:11:06.491Z,4.60
2023-05-24T07:13:53.015Z,3.93
2023-05-24T07:16:39.383Z,3.67
2023-05-24T07:19:29.544Z,4.10
2023-05-24T07:22:16.586Z,4.50
2023-05-24T07:25:03.090Z,3.97
2023-05-24T07:27:49.582Z,4.20
2023-05-24T07:30:36.094Z,5.10
2023-05-24T07:33:22.595Z,5.57
2023-05-24T07:36:10.987Z,4.47
2023-05-24T07:38:57.885Z,8.07
2023-05-24T07:41:44.341Z,6.83
2023-05-24T07:44:30.991Z,4.23
2023-05-24T07:47:17.674Z,3.90
2023-05-24T07:50:04.430Z,4.00
2023-05-24T07:52:52.457Z,4.43
2023-05-24T07:55:39.277Z,3.90
2023-05-24T07:58:25.799Z,4.33
2023-05-24T08:01:11.902Z,4.03
2023-05-24T08:03:58.684Z,4.10
2023-05-24T08:06:46.743Z,4.27
2023-05-24T08:09:38.275Z,4.03
2023-05-24T08:12:26.113Z,3.80
2023-05-24T08:15:13.321Z,3.87
2023-05-24T08:18:00.134Z,3.80
2023-05-24T08:20:47.290Z,4.27
2023-05-24T08:23:34.084Z,4.00
2023-05-24T08:26:22.527Z,4.07
2023-05-24T08:29:09.147Z,4.13
2023-05-24T08:31:55.592Z,4.63
2023-05-24T08:34:42.300Z,3.63
2023-05-24T08:37:28.712Z,4.73
2023-05-24T08:40:15.094Z,4.13
2023-05-24T08:43:03.731Z,4.67
2023-05-24T08:45:51.065Z,4.27
2023-05-24T08:48:46.129Z,5.57
2023-05-24T08:51:33.381Z,4.23
2023-05-24T08:54:21.222Z,4.37
2023-05-24T08:57:08.371Z,4.23
2023-05-24T08:59:56.647Z,4.33
2023-05-24T09:02:44.544Z,5.13
2023-05-24T09:05:31.877Z,4.67
2023-05-24T09:08:20.494Z,4.93
2023-05-24T09:11:09.451Z,4.87
2023-05-24T09:13:57.127Z,4.13
2023-05-24T09:16:45.550Z,4.60
2023-05-24T09:19:32.219Z,4.70
2023-05-24T09:22:20.268Z,4.67
2023-05-24T09:25:08.050Z,4.63
2023-05-24T09:27:55.128Z,6.70
2023-05-24T09:30:44.907Z,7.40
2023-05-24T09:33:34.171Z,4.57
2023-05-24T09:36:20.965Z,4.33
2023-05-24T09:39:09.715Z,4.97
2023-05-24T09:41:57.462Z,4.97
2023-05-24T09:44:44.443Z,4.53
2023-05-24T09:47:31.547Z,4.27
2023-05-24T09:50:20.018Z,4.20
2023-05-24T09:53:07.157Z,4.63
2023-05-24T09:55:56.104Z,4.23
2023-05-24T09:58:43.281Z,4.93
2023-05-24T10:01:31.933Z,4.13
2023-05-24T10:04:18.692Z,4.40
2023-05-24T10:07:08.060Z,4.60
2023-05-24T10:09:55.363Z,5.17
2023-05-24T10:12:46.719Z,4.40
2023-05-24T10:15:33.785Z,4.57
2023-05-24T10:18:20.400Z,4.73
2023-05-24T10:21:09.722Z,4.20
2023-05-24T10:24:00.826Z,5.27
2023-05-24T10:26:49.544Z,7.80
2023-05-24T10:29:51.189Z,5.40
2023-05-24T10:32:40.138Z,4.63
2023-05-24T10:35:27.450Z,4.40
2023-05-24T10:38:14.138Z,4.63
2023-05-24T10:41:03.526Z,5.23
2023-05-24T10:44:07.835Z,5.00
2023-05-24T10:47:12.412Z,5.70
2023-05-24T10:50:04.631Z,4.77
2023-05-24T10:52:51.310Z,4.53
2023-05-24T10:55:52.555Z,4.30
2023-05-24T10:59:00.518Z,6.23
2023-05-24T11:01:56.728Z,5.13
2023-05-24T11:04:46.991Z,4.93
2023-05-24T11:07:42.870Z,5.47
2023-05-24T11:10:32.340Z,4.40
2023-05-24T11:13:20.877Z,4.77
2023-05-24T11:16:08.971Z,4.57
2023-05-24T11:18:56.913Z,5.23
2023-05-24T11:21:45.260Z,4.67
2023-05-24T11:24:31.769Z,4.97
2023-05-24T11:27:18.547Z,4.70
2023-05-24T11:30:06.862Z,4.13
2023-05-24T11:32:55.113Z,4.43
2023-05-24T11:35:41.934Z,4.40
2023-05-24T11:38:28.325Z,4.17
2023-05-24T11:41:14.958Z,4.77
2023-05-24T11:44:01.634Z,4.33
2023-05-24T11:46:49.250Z,4.43
2023-05-24T11:49:37.488Z,5.00
2023-05-24T11:52:23.886Z,4.97
2023-05-24T11:55:17.072Z,4.57
2023-05-24T11:58:08.700Z,4.83
2023-05-24T12:00:55.143Z,4.60
2023-05-24T12:03:41.827Z,4.33
2023-05-24T12:06:37.809Z,5.20
2023-05-24T12:09:24.874Z,4.33
2023-05-24T12:12:11.580Z,5.00
2023-05-24T12:14:58.430Z,4.53
2023-05-24T12:17:45.820Z,4.63
2023-05-24T12:20:32.511Z,5.83
2023-05-24T12:23:22.760Z,4.83
2023-05-24T12:26:09.489Z,5.17
2023-05-24T12:28:58.710Z,5.53
2023-05-24T12:31:48.488Z,4.33
2023-05-24T12:34:35.809Z,4.53
2023-05-24T12:37:22.607Z,4.67
2023-05-24T12:40:20.505Z,4.90
2023-05-24T12:43:07.273Z,4.57
2023-05-24T12:45:54.513Z,4.90
2023-05-24T12:48:41.587Z,4.10
2023-05-24T12:51:28.037Z,3.47
2023-05-24T12:54:14.539Z,4.30
2023-05-24T12:57:03.107Z,4.20
2023-05-24T12:59:49.539Z,4.57
2023-05-24T13:02:38.142Z,4.67
2023-05-24T13:05:28.718Z,3.83
2023-05-24T13:08:16.367Z,4.20
2023-05-24T13:11:03.236Z,3.73
2023-05-24T13:13:50.995Z,4.27
2023-05-24T13:16:37.514Z,4.37
2023-05-24T13:19:24.264Z,4.10
2023-05-24T13:22:11.560Z,4.67
2023-05-24T13:24:58.084Z,4.80
2023-05-24T13:27:44.433Z,4.20
2023-05-24T13:30:32.822Z,5.60
2023-05-24T13:33:19.556Z,4.13
2023-05-24T13:36:07.193Z,4.40
2023-05-24T13:39:02.595Z,4.90
2023-05-24T13:42:00.936Z,3.87
2023-05-24T13:44:47.798Z,3.80
2023-05-24T13:47:40.366Z,4.23
2023-05-24T13:50:27.944Z,4.20
2023-05-24T13:53:15.248Z,4.03
2023-05-24T13:56:02.769Z,4.37
2023-05-24T13:58:49.329Z,4.33
2023-05-24T14:01:37.804Z,4.87
2023-05-24T14:04:25.856Z,4.33
2023-05-24T14:07:15.659Z,4.63
2023-05-24T14:10:02.807Z,4.83
2023-05-24T14:13:03.455Z,4.80
2023-05-24T14:15:56.851Z,5.40
2023-05-24T14:18:43.950Z,4.33
2023-05-24T14:24:19.363Z,5.37
2023-05-24T14:27:07.149Z,4.83
2023-05-24T14:29:54.145Z,4.90
2023-05-24T14:32:41.091Z,4.33
2023-05-24T14:35:27.701Z,5.43
2023-05-24T14:38:15.761Z,4.87
2023-05-24T14:41:02.565Z,4.93
2023-05-24T14:43:49.309Z,4.90
2023-05-24T14:46:36.014Z,5.13
2023-05-24T14:49:22.999Z,4.70
2023-05-24T14:52:09.982Z,5.20
2023-05-24T14:54:57.635Z,4.83
2023-05-24T14:57:44.115Z,4.97
2023-05-24T15:00:30.453Z,5.17
2023-05-24T15:03:17.064Z,4.93
2023-05-24T15:06:04.595Z,4.60
2023-05-24T15:08:52.222Z,5.33
2023-05-24T15:11:40.086Z,4.70
2023-05-24T15:14:26.655Z,5.63
2023-05-24T15:17:13.186Z,4.80
2023-05-24T15:20:00.527Z,5.30
2023-05-24T15:22:47.122Z,5.10
2023-05-24T15:25:33.520Z,5.03
2023-05-24T15:28:21.710Z,5.00
2023-05-24T15:31:09.330Z,5.57
2023-05-24T15:33:56.334Z,5.53
2023-05-24T15:36:43.317Z,4.43
2023-05-24T15:39:29.819Z,4.47
2023-05-24T15:42:16.399Z,4.70
2023-05-24T15:45:04.936Z,5.37
2023-05-24T15:47:51.954Z,4.70
2023-05-24T15:50:59.985Z,5.53
2023-05-24T15:53:45.584Z,5.20
2023-05-24T15:56:32.841Z,5.03
2023-05-24T15:59:21.512Z,5.73
2023-05-24T16:02:10.403Z,5.30
2023-05-24T16:04:57.724Z,5.20
2023-05-24T16:07:44.197Z,4.57
2023-05-24T16:10:30.803Z,4.63
2023-05-24T16:13:17.348Z,5.07
2023-05-24T16:16:04.214Z,4.93
2023-05-24T16:18:52.481Z,4.43
2023-05-24T16:21:38.982Z,5.10
2023-05-24T16:24:25.758Z,4.27
2023-05-24T16:27:12.517Z,4.50
2023-05-24T16:29:58.839Z,4.07
2023-05-24T16:32:46.368Z,4.30
2023-05-24T16:35:35.142Z,4.97
2023-05-24T16:38:21.435Z,5.07
2023-05-24T16:41:07.840Z,5.47
2023-05-24T16:43:54.300Z,4.60
2023-05-24T16:46:41.721Z,4.77
2023-05-24T16:49:28.547Z,5.00
2023-05-24T16:52:16.398Z,4.10
2023-05-24T16:55:02.928Z,4.97
2023-05-24T16:57:50.834Z,4.90
2023-05-24T17:00:37.648Z,4.50
2023-05-24T17:03:28.093Z,4.43
2023-05-24T17:06:15.648Z,4.37
2023-05-24T17:09:03.665Z,4.77
2023-05-24T17:11:51.106Z,4.23
2023-05-24T17:14:38.090Z,4.53
2023-05-24T17:17:24.546Z,3.70
2023-05-24T17:20:12.244Z,4.57
2023-05-24T17:22:58.981Z,4.40
2023-05-24T17:25:47.011Z,3.63
2023-05-24T17:28:36.696Z,3.80
2023-05-24T17:31:23.616Z,4.30
2023-05-24T17:34:10.378Z,3.57
2023-05-24T17:36:56.868Z,3.83
2023-05-24T17:39:43.119Z,3.43
2023-05-24T17:42:30.970Z,3.83
2023-05-24T17:45:17.835Z,3.90
2023-05-24T17:48:04.676Z,3.53
2023-05-24T17:50:51.602Z,3.60
2023-05-24T17:53:40.935Z,4.10
2023-05-24T17:56:27.785Z,3.40
2023-05-24T17:59:15.708Z,4.20
2023-05-24T18:02:02.471Z,4.13
2023-05-24T18:04:48.972Z,3.73
2023-05-24T18:07:36.412Z,3.97
2023-05-24T18:10:23.136Z,3.60
2023-05-24T18:13:09.791Z,4.33
2023-05-24T18:15:58.061Z,3.80
2023-05-24T18:18:44.955Z,3.77
2023-05-24T18:21:32.522Z,4.03
2023-05-24T18:24:19.141Z,3.60
2023-05-24T18:27:05.776Z,3.83
2023-05-24T18:29:52.344Z,3.57
2023-05-24T18:32:52.023Z,4.30
2023-05-24T18:35:47.381Z,3.80
2023-05-24T18:38:35.166Z,4.00
2023-05-24T18:41:22.128Z,3.90
2023-05-24T18:44:08.541Z,3.60
2023-05-24T18:46:56.376Z,4.13
2023-05-24T18:49:44.347Z,3.67
2023-05-24T18:52:31.063Z,3.80
2023-05-24T18:55:17.736Z,3.90
2023-05-24T18:58:04.529Z,3.80
2023-05-24T19:00:51.577Z,3.50
2023-05-24T19:03:39.197Z,4.03
2023-05-24T19:06:27.453Z,4.07
2023-05-24T19:09:14.424Z,4.13
2023-05-24T19:12:04.565Z,3.77
2023-05-24T19:14:51.419Z,3.70
2023-05-24T19:17:37.895Z,5.07
2023-05-24T19:20:25.403Z,4.03
2023-05-24T19:23:13.584Z,3.57
2023-05-24T19:26:00.277Z,4.37
2023-05-24T19:28:50.497Z,3.63
2023-05-24T19:31:37.208Z,4.10
2023-05-24T19:34:24.121Z,4.60
2023-05-24T19:37:10.597Z,3.80
2023-05-24T19:39:58.342Z,3.73
2023-05-24T19:42:44.917Z,3.90
2023-05-24T19:45:31.311Z,4.43
2023-05-24T19:48:17.701Z,4.80
2023-05-24T19:51:04.102Z,4.30
2023-05-24T19:53:51.106Z,4.43
2023-05-24T19:56:39.356Z,4.27
2023-05-24T19:59:26.131Z,4.30
2023-05-24T20:02:12.531Z,3.93
2023-05-24T20:04:58.976Z,4.10
2023-05-24T20:07:45.870Z,4.33
2023-05-24T20:10:35.907Z,4.50
2023-05-24T20:13:23.944Z,4.40
2023-05-24T20:16:10.430Z,4.30
2023-05-24T20:18:57.223Z,3.97
2023-05-24T20:21:43.693Z,4.10
2023-05-24T20:24:30.203Z,4.50
2023-05-24T20:27:16.836Z,4.63
2023-05-24T20:30:06.355Z,4.33
2023-05-24T20:32:53.189Z,4.47
2023-05-24T20:35:40.132Z,4.13
2023-05-24T20:38:26.721Z,4.53
2023-05-24T20:41:13.906Z,4.17
2023-05-24T20:44:00.825Z,4.13
2023-05-24T20:46:48.521Z,3.93
2023-05-24T20:49:36.624Z,4.50
2023-05-24T20:52:23.050Z,4.27
2023-05-24T20:55:11.514Z,4.70
2023-05-24T20:57:58.118Z,4.27
2023-05-24T21:00:44.505Z,4.20
2023-05-24T21:03:32.704Z,4.57
2023-05-24T21:06:20.786Z,4.50
2023-05-24T21:09:07.498Z,4.30
2023-05-24T21:11:54.052Z,4.33
2023-05-24T21:14:40.842Z,4.27
2023-05-24T21:17:27.425Z,4.80
2023-05-24T21:20:15.807Z,4.60
2023-05-24T21:23:03.222Z,4.60
2023-05-24T21:25:49.432Z,3.93
2023-05-24T21:28:35.964Z,4.57
2023-05-24T21:31:22.941Z,4.67
2023-05-24T21:34:09.710Z,4.70
2023-05-24T21:36:57.550Z,4.37
2023-05-24T21:39:44.689Z,4.30
2023-05-24T21:42:31.060Z,4.37
2023-05-24T21:45:17.539Z,4.63
2023-05-24T21:48:03.951Z,5.60
2023-05-24T21:50:50.795Z,4.90
2023-05-24T21:53:38.456Z,4.70
2023-05-24T21:56:25.379Z,4.67
2023-05-24T21:59:12.442Z,4.30
2023-05-24T22:01:58.833Z,4.37
2023-05-24T22:04:45.985Z,5.07
2023-05-24T22:07:32.642Z,4.53
2023-05-24T22:10:20.323Z,4.60
2023-05-24T22:13:07.334Z,4.63
2023-05-24T22:15:53.799Z,4.50
2023-05-24T22:18:40.290Z,4.17
2023-05-24T22:21:28.297Z,4.90
2023-05-24T22:24:14.691Z,4.63
2023-05-24T22:27:03.290Z,5.03
2023-05-24T22:29:49.703Z,5.13
2023-05-24T22:32:36.180Z,4.60
2023-05-24T22:35:22.555Z,5.17
2023-05-24T22:38:08.921Z,4.87
2023-05-24T22:40:55.384Z,4.80
2023-05-24T22:43:43.015Z,4.13
2023-05-24T22:46:29.620Z,4.50
2023-05-24T22:49:19.726Z,4.53
2023-05-24T22:52:07.020Z,4.97
2023-05-24T22:54:53.601Z,4.60
2023-05-24T22:57:40.200Z,4.13
2023-05-24T23:00:28.179Z,4.80
2023-05-24T23:03:14.860Z,4.93
2023-05-24T23:06:04.220Z,5.80
2023-05-24T23:08:51.305Z,6.27
2023-05-24T23:11:37.830Z,5.97
2023-05-24T23:14:24.206Z,5.53
2023-05-24T23:17:14.351Z,5.40
2023-05-24T23:20:01.093Z,5.07
2023-05-24T23:22:48.527Z,5.37
2023-05-24T23:25:35.677Z,5.10
2023-05-24T23:28:22.377Z,4.87
2023-05-24T23:31:09.002Z,5.47
2023-05-24T23:33:56.930Z,4.87
2023-05-24T23:36:43.551Z,5.23
2023-05-24T23:39:30.236Z,4.93
2023-05-24T23:42:16.845Z,5.30
2023-05-24T23:45:03.630Z,5.30
2023-05-24T23:47:50.162Z,4.60
2023-05-24T23:50:52.960Z,5.50
2023-05-24T23:53:40.427Z,4.33
2023-05-24T23:56:27.168Z,5.40
2023-05-24T23:59:13.988Z,5.33
